Terminal Aerodrome Forecast
Issued by NWS

Home | Current Version | Previous Version | Text Only | Print | Product List | Glossary On
Versions: 1 2 3 4 5 6 7 8 9 10 11 12 13 14 15 16 17 18 19 20 21 22 23 24
161
FTUS41 KOKX 290544
TAFHPN
TAF
KHPN 290544Z 2906/3006 10007KT P6SM -RA OVC050
     FM291000 09010KT 6SM -RA OVC035
     FM291200 08011KT 5SM -RA OVC025
     FM291400 09010KT 5SM -RA BR OVC015
     FM291500 08009KT 5SM -RA BR OVC015
     FM291900 08007KT 6SM -DZ OVC015
     FM292100 VRB04KT 5SM BR OVC015
     FM300500 VRB04KT 5SM BR OVC009
      AMD NOT SKED=

USA.gov is the U.S. government's official web portal to all federal, state and local government web resources and services.